sensor_id;sensor_type;location;lat;lon;timestamp;P1;durP1;ratioP1;P2;durP2;ratioP2
3036;SDS011;1528;52.550;13.408;2023-07-24T00:02:01;6.00;;;5.07;;
3036;SDS011;1528;52.550;13.408;2023-07-24T00:04:48;5.23;;;4.73;;
3036;SDS011;1528;52.550;13.408;2023-07-24T00:07:35;5.50;;;5.00;;
3036;SDS011;1528;52.550;13.408;2023-07-24T00:10:20;5.40;;;4.90;;
3036;SDS011;1528;52.550;13.408;2023-07-24T00:13:06;5.00;;;4.60;;
3036;SDS011;1528;52.550;13.408;2023-07-24T00:15:52;6.03;;;5.53;;
3036;SDS011;1528;52.550;13.408;2023-07-24T00:18:38;6.13;;;4.70;;
3036;SDS011;1528;52.550;13.408;2023-07-24T00:21:24;5.63;;;5.20;;
3036;SDS011;1528;52.550;13.408;2023-07-24T00:24:11;5.30;;;4.83;;
3036;SDS011;1528;52.550;13.408;2023-07-24T00:26:57;4.53;;;4.13;;
3036;SDS011;1528;52.550;13.408;2023-07-24T00:29:43;4.73;;;4.33;;
3036;SDS011;1528;52.550;13.408;2023-07-24T00:32:28;5.40;;;5.00;;
3036;SDS011;1528;52.550;13.408;2023-07-24T00:35:14;5.67;;;4.17;;
3036;SDS011;1528;52.550;13.408;2023-07-24T00:37:59;4.83;;;4.43;;
3036;SDS011;1528;52.550;13.408;2023-07-24T00:40:46;7.40;;;4.80;;
3036;SDS011;1528;52.550;13.408;2023-07-24T00:43:32;5.50;;;5.07;;
3036;SDS011;1528;52.550;13.408;2023-07-24T00:46:18;3.97;;;3.70;;
3036;SDS011;1528;52.550;13.408;2023-07-24T00:49:03;6.27;;;5.67;;
3036;SDS011;1528;52.550;13.408;2023-07-24T00:51:50;5.80;;;4.90;;
3036;SDS011;1528;52.550;13.408;2023-07-24T00:54:36;7.60;;;5.20;;
3036;SDS011;1528;52.550;13.408;2023-07-24T00:57:24;5.03;;;4.63;;
3036;SDS011;1528;52.550;13.408;2023-07-24T01:00:10;5.83;;;4.90;;
3036;SDS011;1528;52.550;13.408;2023-07-24T01:02:56;4.27;;;3.80;;
3036;SDS011;1528;52.550;13.408;2023-07-24T01:05:44;4.03;;;3.73;;
3036;SDS011;1528;52.550;13.408;2023-07-24T01:08:30;5.63;;;4.30;;
3036;SDS011;1528;52.550;13.408;2023-07-24T01:11:18;4.67;;;4.37;;
3036;SDS011;1528;52.550;13.408;2023-07-24T01:14:08;4.73;;;4.33;;
3036;SDS011;1528;52.550;13.408;2023-07-24T01:16:58;4.33;;;4.03;;
3036;SDS011;1528;52.550;13.408;2023-07-24T01:19:46;4.83;;;4.50;;
3036;SDS011;1528;52.550;13.408;2023-07-24T01:22:36;5.23;;;4.70;;
3036;SDS011;1528;52.550;13.408;2023-07-24T01:25:27;4.77;;;4.47;;
3036;SDS011;1528;52.550;13.408;2023-07-24T01:28:20;5.27;;;4.87;;
3036;SDS011;1528;52.550;13.408;2023-07-24T01:31:06;5.43;;;5.00;;
3036;SDS011;1528;52.550;13.408;2023-07-24T01:33:51;5.00;;;4.50;;
3036;SDS011;1528;52.550;13.408;2023-07-24T01:36:37;5.43;;;4.90;;
3036;SDS011;1528;52.550;13.408;2023-07-24T01:39:22;4.70;;;4.20;;
3036;SDS011;1528;52.550;13.408;2023-07-24T01:42:08;4.77;;;4.40;;
3036;SDS011;1528;52.550;13.408;2023-07-24T01:44:56;4.60;;;4.20;;
3036;SDS011;1528;52.550;13.408;2023-07-24T01:47:41;4.60;;;4.20;;
3036;SDS011;1528;52.550;13.408;2023-07-24T01:50:27;4.70;;;4.00;;
3036;SDS011;1528;52.550;13.408;2023-07-24T01:53:12;4.10;;;3.80;;
3036;SDS011;1528;52.550;13.408;2023-07-24T01:55:58;4.17;;;3.87;;
3036;SDS011;1528;52.550;13.408;2023-07-24T01:58:44;4.33;;;4.00;;
3036;SDS011;1528;52.550;13.408;2023-07-24T02:01:31;4.80;;;4.40;;
3036;SDS011;1528;52.550;13.408;2023-07-24T02:04:16;3.90;;;3.70;;
3036;SDS011;1528;52.550;13.408;2023-07-24T02:07:02;4.37;;;4.07;;
3036;SDS011;1528;52.550;13.408;2023-07-24T02:09:48;5.73;;;4.50;;
3036;SDS011;1528;52.550;13.408;2023-07-24T02:12:34;4.30;;;4.00;;
3036;SDS011;1528;52.550;13.408;2023-07-24T02:15:19;3.60;;;3.40;;
3036;SDS011;1528;52.550;13.408;2023-07-24T02:18:06;3.80;;;3.60;;
3036;SDS011;1528;52.550;13.408;2023-07-24T02:20:52;4.10;;;3.80;;
3036;SDS011;1528;52.550;13.408;2023-07-24T02:23:37;3.67;;;3.47;;
3036;SDS011;1528;52.550;13.408;2023-07-24T02:26:23;4.60;;;4.30;;
3036;SDS011;1528;52.550;13.408;2023-07-24T02:29:09;4.10;;;3.80;;
3036;SDS011;1528;52.550;13.408;2023-07-24T02:31:54;4.93;;;4.63;;
3036;SDS011;1528;52.550;13.408;2023-07-24T02:34:41;4.90;;;4.47;;
3036;SDS011;1528;52.550;13.408;2023-07-24T02:37:27;4.97;;;4.57;;
3036;SDS011;1528;52.550;13.408;2023-07-24T02:40:13;4.43;;;4.13;;
3036;SDS011;1528;52.550;13.408;2023-07-24T02:42:58;4.83;;;4.40;;
3036;SDS011;1528;52.550;13.408;2023-07-24T02:45:44;4.80;;;4.40;;
3036;SDS011;1528;52.550;13.408;2023-07-24T02:48:30;4.13;;;3.83;;
3036;SDS011;1528;52.550;13.408;2023-07-24T02:51:19;4.13;;;3.83;;
3036;SDS011;1528;52.550;13.408;2023-07-24T02:54:05;4.90;;;4.50;;
3036;SDS011;1528;52.550;13.408;2023-07-24T02:56:50;4.23;;;3.97;;
3036;SDS011;1528;52.550;13.408;2023-07-24T02:59:36;5.93;;;4.70;;
3036;SDS011;1528;52.550;13.408;2023-07-24T03:02:22;7.03;;;4.90;;
3036;SDS011;1528;52.550;13.408;2023-07-24T03:05:07;4.73;;;4.43;;
3036;SDS011;1528;52.550;13.408;2023-07-24T03:07:54;4.33;;;4.00;;
3036;SDS011;1528;52.550;13.408;2023-07-24T03:10:40;4.23;;;3.93;;
3036;SDS011;1528;52.550;13.408;2023-07-24T03:13:26;4.50;;;4.10;;
3036;SDS011;1528;52.550;13.408;2023-07-24T03:16:12;3.90;;;3.60;;
3036;SDS011;1528;52.550;13.408;2023-07-24T03:18:58;4.37;;;4.07;;
3036;SDS011;1528;52.550;13.408;2023-07-24T03:21:43;4.33;;;3.80;;
3036;SDS011;1528;52.550;13.408;2023-07-24T03:24:30;6.53;;;3.70;;
3036;SDS011;1528;52.550;13.408;2023-07-24T03:27:16;4.57;;;4.17;;
3036;SDS011;1528;52.550;13.408;2023-07-24T03:30:01;5.23;;;3.77;;
3036;SDS011;1528;52.550;13.408;2023-07-24T03:32:47;4.13;;;3.83;;
3036;SDS011;1528;52.550;13.408;2023-07-24T03:35:33;4.03;;;3.73;;
3036;SDS011;1528;52.550;13.408;2023-07-24T03:38:19;4.60;;;4.23;;
3036;SDS011;1528;52.550;13.408;2023-07-24T03:41:06;3.80;;;3.50;;
3036;SDS011;1528;52.550;13.408;2023-07-24T03:43:51;4.33;;;3.93;;
3036;SDS011;1528;52.550;13.408;2023-07-24T03:46:37;4.03;;;3.70;;
3036;SDS011;1528;52.550;13.408;2023-07-24T03:49:22;4.13;;;3.27;;
3036;SDS011;1528;52.550;13.408;2023-07-24T03:52:08;3.90;;;3.60;;
3036;SDS011;1528;52.550;13.408;2023-07-24T03:54:54;4.43;;;4.03;;
3036;SDS011;1528;52.550;13.408;2023-07-24T03:57:40;4.47;;;4.13;;
3036;SDS011;1528;52.550;13.408;2023-07-24T04:00:26;4.60;;;3.47;;
3036;SDS011;1528;52.550;13.408;2023-07-24T04:03:12;4.07;;;3.67;;
3036;SDS011;1528;52.550;13.408;2023-07-24T04:05:57;3.30;;;3.00;;
3036;SDS011;1528;52.550;13.408;2023-07-24T04:08:44;4.40;;;4.00;;
3036;SDS011;1528;52.550;13.408;2023-07-24T04:11:29;4.20;;;3.43;;
3036;SDS011;1528;52.550;13.408;2023-07-24T04:14:16;3.57;;;3.37;;
3036;SDS011;1528;52.550;13.408;2023-07-24T04:17:02;3.77;;;3.47;;
3036;SDS011;1528;52.550;13.408;2023-07-24T04:19:48;4.00;;;3.70;;
3036;SDS011;1528;52.550;13.408;2023-07-24T04:22:33;3.73;;;3.53;;
3036;SDS011;1528;52.550;13.408;2023-07-24T04:25:19;4.50;;;4.10;;
3036;SDS011;1528;52.550;13.408;2023-07-24T04:28:05;4.00;;;3.70;;
3036;SDS011;1528;52.550;13.408;2023-07-24T04:30:52;3.63;;;3.43;;
3036;SDS011;1528;52.550;13.408;2023-07-24T04:33:37;5.27;;;3.67;;
3036;SDS011;1528;52.550;13.408;2023-07-24T04:36:23;4.03;;;3.73;;
3036;SDS011;1528;52.550;13.408;2023-07-24T04:39:08;4.10;;;3.80;;
3036;SDS011;1528;52.550;13.408;2023-07-24T04:41:54;3.93;;;3.70;;
3036;SDS011;1528;52.550;13.408;2023-07-24T04:44:40;3.77;;;3.50;;
3036;SDS011;1528;52.550;13.408;2023-07-24T04:47:27;4.27;;;3.97;;
3036;SDS011;1528;52.550;13.408;2023-07-24T04:50:13;4.00;;;3.80;;
3036;SDS011;1528;52.550;13.408;2023-07-24T04:52:59;3.60;;;3.30;;
3036;SDS011;1528;52.550;13.408;2023-07-24T04:55:45;4.00;;;3.70;;
3036;SDS011;1528;52.550;13.408;2023-07-24T04:58:31;4.23;;;3.93;;
3036;SDS011;1528;52.550;13.408;2023-07-24T05:01:17;4.50;;;4.13;;
3036;SDS011;1528;52.550;13.408;2023-07-24T05:04:04;4.40;;;4.10;;
3036;SDS011;1528;52.550;13.408;2023-07-24T05:06:49;4.33;;;4.13;;
3036;SDS011;1528;52.550;13.408;2023-07-24T05:09:35;4.17;;;3.83;;
3036;SDS011;1528;52.550;13.408;2023-07-24T05:12:21;4.53;;;4.23;;
3036;SDS011;1528;52.550;13.408;2023-07-24T05:15:07;4.30;;;4.10;;
3036;SDS011;1528;52.550;13.408;2023-07-24T05:17:53;4.77;;;4.37;;
3036;SDS011;1528;52.550;13.408;2023-07-24T05:20:43;3.97;;;3.67;;
3036;SDS011;1528;52.550;13.408;2023-07-24T05:23:31;4.67;;;4.47;;
3036;SDS011;1528;52.550;13.408;2023-07-24T05:26:16;11.03;;;4.10;;
3036;SDS011;1528;52.550;13.408;2023-07-24T05:29:02;4.60;;;4.10;;
3036;SDS011;1528;52.550;13.408;2023-07-24T05:31:48;3.70;;;3.40;;
3036;SDS011;1528;52.550;13.408;2023-07-24T05:34:33;3.60;;;3.40;;
3036;SDS011;1528;52.550;13.408;2023-07-24T05:37:20;3.13;;;2.93;;
3036;SDS011;1528;52.550;13.408;2023-07-24T05:40:06;4.10;;;3.90;;
3036;SDS011;1528;52.550;13.408;2023-07-24T05:42:52;5.13;;;3.90;;
3036;SDS011;1528;52.550;13.408;2023-07-24T05:45:38;3.93;;;3.63;;
3036;SDS011;1528;52.550;13.408;2023-07-24T05:48:24;4.30;;;4.00;;
3036;SDS011;1528;52.550;13.408;2023-07-24T05:51:09;4.20;;;3.93;;
3036;SDS011;1528;52.550;13.408;2023-07-24T05:53:57;3.87;;;3.67;;
3036;SDS011;1528;52.550;13.408;2023-07-24T05:56:42;3.80;;;3.60;;
3036;SDS011;1528;52.550;13.408;2023-07-24T05:59:28;4.20;;;3.77;;
3036;SDS011;1528;52.550;13.408;2023-07-24T06:02:13;3.77;;;3.50;;
3036;SDS011;1528;52.550;13.408;2023-07-24T06:04:59;3.90;;;3.60;;
3036;SDS011;1528;52.550;13.408;2023-07-24T06:07:45;3.10;;;2.90;;
3036;SDS011;1528;52.550;13.408;2023-07-24T06:10:32;3.43;;;3.13;;
3036;SDS011;1528;52.550;13.408;2023-07-24T06:13:17;3.70;;;3.50;;
3036;SDS011;1528;52.550;13.408;2023-07-24T06:16:03;3.63;;;3.33;;
3036;SDS011;1528;52.550;13.408;2023-07-24T06:18:51;3.90;;;3.70;;
3036;SDS011;1528;52.550;13.408;2023-07-24T06:21:36;5.00;;;4.60;;
3036;SDS011;1528;52.550;13.408;2023-07-24T06:24:22;4.63;;;4.20;;
3036;SDS011;1528;52.550;13.408;2023-07-24T06:27:09;3.63;;;3.43;;
3036;SDS011;1528;52.550;13.408;2023-07-24T06:29:54;3.87;;;3.60;;
3036;SDS011;1528;52.550;13.408;2023-07-24T06:32:40;4.57;;;4.27;;
3036;SDS011;1528;52.550;13.408;2023-07-24T06:35:26;5.20;;;4.90;;
3036;SDS011;1528;52.550;13.408;2023-07-24T06:38:11;4.93;;;4.53;;
3036;SDS011;1528;52.550;13.408;2023-07-24T06:40:57;4.50;;;4.20;;
3036;SDS011;1528;52.550;13.408;2023-07-24T06:43:44;6.50;;;6.03;;
3036;SDS011;1528;52.550;13.408;2023-07-24T06:46:29;4.40;;;4.10;;
3036;SDS011;1528;52.550;13.408;2023-07-24T06:49:15;5.30;;;4.90;;
3036;SDS011;1528;52.550;13.408;2023-07-24T06:52:01;4.27;;;3.97;;
3036;SDS011;1528;52.550;13.408;2023-07-24T06:54:46;5.13;;;4.63;;
3036;SDS011;1528;52.550;13.408;2023-07-24T06:57:34;4.23;;;3.93;;
3036;SDS011;1528;52.550;13.408;2023-07-24T07:00:21;5.07;;;4.63;;
3036;SDS011;1528;52.550;13.408;2023-07-24T07:03:07;4.90;;;4.37;;
3036;SDS011;1528;52.550;13.408;2023-07-24T07:05:58;4.20;;;4.00;;
3036;SDS011;1528;52.550;13.408;2023-07-24T07:08:43;4.53;;;4.23;;
3036;SDS011;1528;52.550;13.408;2023-07-24T07:11:29;5.53;;;5.23;;
3036;SDS011;1528;52.550;13.408;2023-07-24T07:14:15;4.60;;;4.30;;
3036;SDS011;1528;52.550;13.408;2023-07-24T07:17:02;4.97;;;4.57;;
3036;SDS011;1528;52.550;13.408;2023-07-24T07:19:48;4.07;;;3.87;;
3036;SDS011;1528;52.550;13.408;2023-07-24T07:22:33;4.30;;;4.10;;
3036;SDS011;1528;52.550;13.408;2023-07-24T07:25:21;4.27;;;4.07;;
3036;SDS011;1528;52.550;13.408;2023-07-24T07:28:07;4.60;;;4.30;;
3036;SDS011;1528;52.550;13.408;2023-07-24T07:30:53;4.70;;;4.40;;
3036;SDS011;1528;52.550;13.408;2023-07-24T07:33:40;4.80;;;4.50;;
3036;SDS011;1528;52.550;13.408;2023-07-24T07:36:26;4.87;;;4.67;;
3036;SDS011;1528;52.550;13.408;2023-07-24T07:39:11;4.93;;;4.57;;
3036;SDS011;1528;52.550;13.408;2023-07-24T07:41:56;3.87;;;3.67;;
3036;SDS011;1528;52.550;13.408;2023-07-24T07:44:42;4.27;;;3.97;;
3036;SDS011;1528;52.550;13.408;2023-07-24T07:47:28;4.47;;;4.07;;
3036;SDS011;1528;52.550;13.408;2023-07-24T07:50:15;5.30;;;5.00;;
3036;SDS011;1528;52.550;13.408;2023-07-24T07:53:01;3.70;;;3.50;;
3036;SDS011;1528;52.550;13.408;2023-07-24T07:55:54;4.00;;;3.50;;
3036;SDS011;1528;52.550;13.408;2023-07-24T07:58:40;4.93;;;3.87;;
3036;SDS011;1528;52.550;13.408;2023-07-24T08:01:26;4.47;;;4.07;;
3036;SDS011;1528;52.550;13.408;2023-07-24T08:04:11;5.00;;;4.20;;
3036;SDS011;1528;52.550;13.408;2023-07-24T08:06:58;7.33;;;4.30;;
3036;SDS011;1528;52.550;13.408;2023-07-24T08:09:45;4.40;;;4.00;;
3036;SDS011;1528;52.550;13.408;2023-07-24T08:12:31;3.70;;;3.50;;
3036;SDS011;1528;52.550;13.408;2023-07-24T08:15:16;5.47;;;4.57;;
3036;SDS011;1528;52.550;13.408;2023-07-24T08:18:02;4.37;;;4.00;;
3036;SDS011;1528;52.550;13.408;2023-07-24T08:20:48;18.07;;;5.90;;
3036;SDS011;1528;52.550;13.408;2023-07-24T08:23:35;4.50;;;4.10;;
3036;SDS011;1528;52.550;13.408;2023-07-24T08:26:20;6.03;;;4.97;;
3036;SDS011;1528;52.550;13.408;2023-07-24T08:29:08;4.80;;;4.40;;
3036;SDS011;1528;52.550;13.408;2023-07-24T08:31:54;5.10;;;4.60;;
3036;SDS011;1528;52.550;13.408;2023-07-24T08:34:39;4.53;;;4.13;;
3036;SDS011;1528;52.550;13.408;2023-07-24T08:37:25;4.30;;;4.00;;
3036;SDS011;1528;52.550;13.408;2023-07-24T08:40:12;4.80;;;3.80;;
3036;SDS011;1528;52.550;13.408;2023-07-24T08:43:01;4.37;;;4.13;;
3036;SDS011;1528;52.550;13.408;2023-07-24T08:45:47;6.00;;;4.13;;
3036;SDS011;1528;52.550;13.408;2023-07-24T08:48:33;4.00;;;3.67;;
3036;SDS011;1528;52.550;13.408;2023-07-24T08:51:20;3.97;;;3.67;;
3036;SDS011;1528;52.550;13.408;2023-07-24T08:54:06;4.30;;;4.10;;
3036;SDS011;1528;52.550;13.408;2023-07-24T08:56:54;11.20;;;4.60;;
3036;SDS011;1528;52.550;13.408;2023-07-24T08:59:40;4.23;;;3.93;;
3036;SDS011;1528;52.550;13.408;2023-07-24T09:02:27;3.70;;;3.40;;
3036;SDS011;1528;52.550;13.408;2023-07-24T09:05:13;3.67;;;3.47;;
3036;SDS011;1528;52.550;13.408;2023-07-24T09:08:00;4.07;;;3.77;;
3036;SDS011;1528;52.550;13.408;2023-07-24T09:10:46;4.03;;;3.73;;
3036;SDS011;1528;52.550;13.408;2023-07-24T09:13:37;3.90;;;3.70;;
3036;SDS011;1528;52.550;13.408;2023-07-24T09:16:25;4.10;;;3.90;;
3036;SDS011;1528;52.550;13.408;2023-07-24T09:19:16;4.20;;;3.90;;
3036;SDS011;1528;52.550;13.408;2023-07-24T09:22:09;4.53;;;4.23;;
3036;SDS011;1528;52.550;13.408;2023-07-24T09:24:56;4.60;;;4.20;;
3036;SDS011;1528;52.550;13.408;2023-07-24T09:27:42;4.17;;;3.87;;
3036;SDS011;1528;52.550;13.408;2023-07-24T09:30:30;4.33;;;4.03;;
3036;SDS011;1528;52.550;13.408;2023-07-24T09:33:16;3.73;;;3.43;;
3036;SDS011;1528;52.550;13.408;2023-07-24T09:36:02;5.40;;;4.40;;
3036;SDS011;1528;52.550;13.408;2023-07-24T09:38:48;4.70;;;4.40;;
3036;SDS011;1528;52.550;13.408;2023-07-24T09:41:33;7.00;;;3.83;;
3036;SDS011;1528;52.550;13.408;2023-07-24T09:44:19;4.13;;;3.73;;
3036;SDS011;1528;52.550;13.408;2023-07-24T09:47:06;4.00;;;3.80;;
3036;SDS011;1528;52.550;13.408;2023-07-24T09:49:52;5.40;;;5.00;;
3036;SDS011;1528;52.550;13.408;2023-07-24T09:52:38;4.27;;;4.07;;
3036;SDS011;1528;52.550;13.408;2023-07-24T09:55:28;4.17;;;3.93;;
3036;SDS011;1528;52.550;13.408;2023-07-24T09:58:18;4.03;;;3.83;;
3036;SDS011;1528;52.550;13.408;2023-07-24T10:01:06;4.00;;;3.60;;
3036;SDS011;1528;52.550;13.408;2023-07-24T10:03:55;3.97;;;3.63;;
3036;SDS011;1528;52.550;13.408;2023-07-24T10:06:41;4.43;;;4.10;;
3036;SDS011;1528;52.550;13.408;2023-07-24T10:09:27;6.30;;;4.90;;
3036;SDS011;1528;52.550;13.408;2023-07-24T10:12:14;4.40;;;4.13;;
3036;SDS011;1528;52.550;13.408;2023-07-24T10:15:01;4.17;;;3.90;;
3036;SDS011;1528;52.550;13.408;2023-07-24T10:17:46;5.10;;;4.70;;
3036;SDS011;1528;52.550;13.408;2023-07-24T10:20:34;4.20;;;3.90;;
3036;SDS011;1528;52.550;13.408;2023-07-24T10:23:20;4.70;;;4.20;;
3036;SDS011;1528;52.550;13.408;2023-07-24T10:26:07;5.50;;;5.00;;
3036;SDS011;1528;52.550;13.408;2023-07-24T10:28:54;4.67;;;4.37;;
3036;SDS011;1528;52.550;13.408;2023-07-24T10:31:39;5.10;;;4.60;;
3036;SDS011;1528;52.550;13.408;2023-07-24T10:34:35;5.27;;;4.87;;
3036;SDS011;1528;52.550;13.408;2023-07-24T10:37:31;5.30;;;4.80;;
3036;SDS011;1528;52.550;13.408;2023-07-24T10:40:19;5.87;;;5.47;;
3036;SDS011;1528;52.550;13.408;2023-07-24T10:43:05;5.40;;;4.80;;
3036;SDS011;1528;52.550;13.408;2023-07-24T10:45:53;4.67;;;4.37;;
3036;SDS011;1528;52.550;13.408;2023-07-24T10:48:41;6.10;;;4.70;;
3036;SDS011;1528;52.550;13.408;2023-07-24T10:51:28;9.03;;;5.80;;
3036;SDS011;1528;52.550;13.408;2023-07-24T10:54:20;5.13;;;4.73;;
3036;SDS011;1528;52.550;13.408;2023-07-24T10:57:06;11.47;;;6.87;;
3036;SDS011;1528;52.550;13.408;2023-07-24T10:59:51;6.97;;;5.83;;
3036;SDS011;1528;52.550;13.408;2023-07-24T11:02:37;6.67;;;6.10;;
3036;SDS011;1528;52.550;13.408;2023-07-24T11:05:23;5.97;;;5.47;;
3036;SDS011;1528;52.550;13.408;2023-07-24T11:08:09;6.67;;;6.27;;
3036;SDS011;1528;52.550;13.408;2023-07-24T11:11:00;8.30;;;6.80;;
3036;SDS011;1528;52.550;13.408;2023-07-24T11:13:47;6.53;;;5.90;;
3036;SDS011;1528;52.550;13.408;2023-07-24T11:16:32;6.43;;;5.83;;
3036;SDS011;1528;52.550;13.408;2023-07-24T11:19:22;6.87;;;6.33;;
3036;SDS011;1528;52.550;13.408;2023-07-24T11:22:08;7.03;;;6.33;;
3036;SDS011;1528;52.550;13.408;2023-07-24T11:24:53;7.17;;;6.67;;
3036;SDS011;1528;52.550;13.408;2023-07-24T11:27:43;7.27;;;6.47;;
3036;SDS011;1528;52.550;13.408;2023-07-24T11:30:31;7.93;;;6.30;;
3036;SDS011;1528;52.550;13.408;2023-07-24T11:33:16;6.30;;;5.80;;
3036;SDS011;1528;52.550;13.408;2023-07-24T11:36:03;6.40;;;5.73;;
3036;SDS011;1528;52.550;13.408;2023-07-24T11:38:49;6.77;;;6.20;;
3036;SDS011;1528;52.550;13.408;2023-07-24T11:41:35;5.97;;;5.57;;
3036;SDS011;1528;52.550;13.408;2023-07-24T11:44:25;6.27;;;5.77;;
3036;SDS011;1528;52.550;13.408;2023-07-24T11:47:11;6.67;;;5.53;;
3036;SDS011;1528;52.550;13.408;2023-07-24T11:49:58;6.07;;;5.57;;
3036;SDS011;1528;52.550;13.408;2023-07-24T11:52:45;6.50;;;6.00;;
3036;SDS011;1528;52.550;13.408;2023-07-24T11:55:32;7.20;;;6.10;;
3036;SDS011;1528;52.550;13.408;2023-07-24T11:58:18;6.07;;;5.57;;
3036;SDS011;1528;52.550;13.408;2023-07-24T12:01:06;6.40;;;5.90;;
3036;SDS011;1528;52.550;13.408;2023-07-24T12:03:51;6.70;;;6.30;;
3036;SDS011;1528;52.550;13.408;2023-07-24T12:06:37;7.30;;;6.63;;
3036;SDS011;1528;52.550;13.408;2023-07-24T12:09:23;7.63;;;7.03;;
3036;SDS011;1528;52.550;13.408;2023-07-24T12:12:14;8.80;;;8.10;;
3036;SDS011;1528;52.550;13.408;2023-07-24T12:15:01;7.77;;;7.07;;
3036;SDS011;1528;52.550;13.408;2023-07-24T12:17:48;7.33;;;6.73;;
3036;SDS011;1528;52.550;13.408;2023-07-24T12:20:34;8.37;;;7.07;;
3036;SDS011;1528;52.550;13.408;2023-07-24T12:23:19;10.00;;;7.50;;
3036;SDS011;1528;52.550;13.408;2023-07-24T12:26:05;7.70;;;5.80;;
3036;SDS011;1528;52.550;13.408;2023-07-24T12:28:51;6.97;;;6.37;;
3036;SDS011;1528;52.550;13.408;2023-07-24T12:31:36;7.00;;;6.33;;
3036;SDS011;1528;52.550;13.408;2023-07-24T12:34:23;6.10;;;5.70;;
3036;SDS011;1528;52.550;13.408;2023-07-24T12:37:08;7.13;;;6.50;;
3036;SDS011;1528;52.550;13.408;2023-07-24T12:39:54;5.73;;;5.30;;
3036;SDS011;1528;52.550;13.408;2023-07-24T12:42:40;6.00;;;5.60;;
3036;SDS011;1528;52.550;13.408;2023-07-24T12:45:26;8.13;;;7.13;;
3036;SDS011;1528;52.550;13.408;2023-07-24T12:48:11;11.93;;;11.03;;
3036;SDS011;1528;52.550;13.408;2023-07-24T12:50:58;7.07;;;6.57;;
3036;SDS011;1528;52.550;13.408;2023-07-24T12:53:44;7.00;;;6.33;;
3036;SDS011;1528;52.550;13.408;2023-07-24T12:56:30;6.37;;;5.87;;
3036;SDS011;1528;52.550;13.408;2023-07-24T12:59:16;6.70;;;6.13;;
3036;SDS011;1528;52.550;13.408;2023-07-24T13:02:02;6.20;;;5.70;;
3036;SDS011;1528;52.550;13.408;2023-07-24T13:04:48;6.30;;;5.77;;
3036;SDS011;1528;52.550;13.408;2023-07-24T13:07:35;6.63;;;6.03;;
3036;SDS011;1528;52.550;13.408;2023-07-24T13:10:20;6.60;;;5.30;;
3036;SDS011;1528;52.550;13.408;2023-07-24T13:13:06;5.80;;;5.40;;
3036;SDS011;1528;52.550;13.408;2023-07-24T13:15:52;7.10;;;6.40;;
3036;SDS011;1528;52.550;13.408;2023-07-24T13:18:38;6.90;;;6.30;;
3036;SDS011;1528;52.550;13.408;2023-07-24T13:21:23;6.40;;;5.90;;
3036;SDS011;1528;52.550;13.408;2023-07-24T13:24:10;7.10;;;6.43;;
3036;SDS011;1528;52.550;13.408;2023-07-24T13:26:56;7.40;;;6.80;;
3036;SDS011;1528;52.550;13.408;2023-07-24T13:29:41;8.63;;;6.80;;
3036;SDS011;1528;52.550;13.408;2023-07-24T13:32:27;7.20;;;6.60;;
3036;SDS011;1528;52.550;13.408;2023-07-24T13:35:13;8.20;;;7.67;;
3036;SDS011;1528;52.550;13.408;2023-07-24T13:37:59;7.57;;;6.53;;
3036;SDS011;1528;52.550;13.408;2023-07-24T13:40:46;6.20;;;5.70;;
3036;SDS011;1528;52.550;13.408;2023-07-24T13:43:32;6.17;;;5.57;;
3036;SDS011;1528;52.550;13.408;2023-07-24T13:46:18;7.60;;;6.90;;
3036;SDS011;1528;52.550;13.408;2023-07-24T13:49:03;7.70;;;7.10;;
3036;SDS011;1528;52.550;13.408;2023-07-24T13:51:49;6.00;;;5.60;;
3036;SDS011;1528;52.550;13.408;2023-07-24T13:54:35;6.50;;;5.90;;
3036;SDS011;1528;52.550;13.408;2023-07-24T13:57:22;6.03;;;5.53;;
3036;SDS011;1528;52.550;13.408;2023-07-24T14:00:08;5.60;;;5.20;;
3036;SDS011;1528;52.550;13.408;2023-07-24T14:02:54;6.37;;;4.80;;
3036;SDS011;1528;52.550;13.408;2023-07-24T14:05:40;6.20;;;5.63;;
3036;SDS011;1528;52.550;13.408;2023-07-24T14:08:25;4.77;;;4.47;;
3036;SDS011;1528;52.550;13.408;2023-07-24T14:11:11;5.60;;;5.10;;
3036;SDS011;1528;52.550;13.408;2023-07-24T14:13:58;6.30;;;5.80;;
3036;SDS011;1528;52.550;13.408;2023-07-24T14:16:43;6.30;;;4.73;;
3036;SDS011;1528;52.550;13.408;2023-07-24T14:19:29;6.50;;;5.90;;
3036;SDS011;1528;52.550;13.408;2023-07-24T14:22:15;5.70;;;5.30;;
3036;SDS011;1528;52.550;13.408;2023-07-24T14:25:00;4.97;;;4.60;;
3036;SDS011;1528;52.550;13.408;2023-07-24T14:27:46;4.80;;;4.50;;
3036;SDS011;1528;52.550;13.408;2023-07-24T14:30:33;4.90;;;4.60;;
3036;SDS011;1528;52.550;13.408;2023-07-24T14:33:18;5.77;;;4.83;;
3036;SDS011;1528;52.550;13.408;2023-07-24T14:36:05;5.63;;;5.13;;
3036;SDS011;1528;52.550;13.408;2023-07-24T14:38:51;5.27;;;4.77;;
3036;SDS011;1528;52.550;13.408;2023-07-24T14:41:37;9.13;;;8.30;;
3036;SDS011;1528;52.550;13.408;2023-07-24T14:44:23;5.97;;;5.57;;
3036;SDS011;1528;52.550;13.408;2023-07-24T14:47:09;6.03;;;5.50;;
3036;SDS011;1528;52.550;13.408;2023-07-24T14:49:56;7.13;;;6.43;;
3036;SDS011;1528;52.550;13.408;2023-07-24T14:52:41;5.60;;;5.10;;
3036;SDS011;1528;52.550;13.408;2023-07-24T14:55:27;8.10;;;7.23;;
3036;SDS011;1528;52.550;13.408;2023-07-24T14:58:13;5.27;;;4.87;;
3036;SDS011;1528;52.550;13.408;2023-07-24T15:00:58;6.63;;;6.00;;
3036;SDS011;1528;52.550;13.408;2023-07-24T15:03:46;5.60;;;5.10;;
3036;SDS011;1528;52.550;13.408;2023-07-24T15:06:31;5.30;;;4.97;;
3036;SDS011;1528;52.550;13.408;2023-07-24T15:09:17;6.17;;;5.77;;
3036;SDS011;1528;52.550;13.408;2023-07-24T15:12:02;5.87;;;5.47;;
3036;SDS011;1528;52.550;13.408;2023-07-24T15:14:48;8.13;;;5.83;;
3036;SDS011;1528;52.550;13.408;2023-07-24T15:17:34;5.33;;;4.93;;
3036;SDS011;1528;52.550;13.408;2023-07-24T15:20:21;6.27;;;5.77;;
3036;SDS011;1528;52.550;13.408;2023-07-24T15:23:06;6.03;;;5.43;;
3036;SDS011;1528;52.550;13.408;2023-07-24T15:25:52;5.70;;;5.20;;
3036;SDS011;1528;52.550;13.408;2023-07-24T15:28:38;9.73;;;5.67;;
3036;SDS011;1528;52.550;13.408;2023-07-24T15:31:23;5.90;;;5.40;;
3036;SDS011;1528;52.550;13.408;2023-07-24T15:34:09;6.43;;;5.50;;
3036;SDS011;1528;52.550;13.408;2023-07-24T15:36:56;5.63;;;5.17;;
3036;SDS011;1528;52.550;13.408;2023-07-24T15:39:41;6.10;;;5.63;;
3036;SDS011;1528;52.550;13.408;2023-07-24T15:42:27;5.30;;;4.80;;
3036;SDS011;1528;52.550;13.408;2023-07-24T15:45:13;6.90;;;6.40;;
3036;SDS011;1528;52.550;13.408;2023-07-24T15:47:58;5.93;;;5.50;;
3036;SDS011;1528;52.550;13.408;2023-07-24T15:50:44;6.00;;;5.50;;
3036;SDS011;1528;52.550;13.408;2023-07-24T15:53:31;5.20;;;4.80;;
3036;SDS011;1528;52.550;13.408;2023-07-24T15:56:17;6.63;;;6.03;;
3036;SDS011;1528;52.550;13.408;2023-07-24T15:59:02;6.13;;;5.67;;
3036;SDS011;1528;52.550;13.408;2023-07-24T16:01:48;5.43;;;5.03;;
3036;SDS011;1528;52.550;13.408;2023-07-24T16:04:34;5.97;;;5.43;;
3036;SDS011;1528;52.550;13.408;2023-07-24T16:07:20;5.00;;;4.70;;
3036;SDS011;1528;52.550;13.408;2023-07-24T16:10:07;6.00;;;5.50;;
3036;SDS011;1528;52.550;13.408;2023-07-24T16:12:53;6.70;;;6.20;;
3036;SDS011;1528;52.550;13.408;2023-07-24T16:15:39;6.30;;;5.80;;
3036;SDS011;1528;52.550;13.408;2023-07-24T16:18:24;7.00;;;6.00;;
3036;SDS011;1528;52.550;13.408;2023-07-24T16:21:10;6.97;;;5.90;;
3036;SDS011;1528;52.550;13.408;2023-07-24T16:23:56;5.83;;;5.40;;
3036;SDS011;1528;52.550;13.408;2023-07-24T16:26:43;5.43;;;4.93;;
3036;SDS011;1528;52.550;13.408;2023-07-24T16:29:29;5.90;;;5.50;;
3036;SDS011;1528;52.550;13.408;2023-07-24T16:32:16;5.87;;;5.40;;
3036;SDS011;1528;52.550;13.408;2023-07-24T16:35:02;6.40;;;5.80;;
3036;SDS011;1528;52.550;13.408;2023-07-24T16:37:47;5.13;;;4.83;;
3036;SDS011;1528;52.550;13.408;2023-07-24T16:40:34;4.93;;;4.53;;
3036;SDS011;1528;52.550;13.408;2023-07-24T16:43:21;5.90;;;5.50;;
3036;SDS011;1528;52.550;13.408;2023-07-24T16:46:06;6.30;;;5.30;;
3036;SDS011;1528;52.550;13.408;2023-07-24T16:48:52;5.23;;;4.83;;
3036;SDS011;1528;52.550;13.408;2023-07-24T16:51:38;6.17;;;5.77;;
3036;SDS011;1528;52.550;13.408;2023-07-24T16:54:23;7.23;;;4.90;;
3036;SDS011;1528;52.550;13.408;2023-07-24T16:57:09;6.83;;;3.83;;